Time;durP1;ratioP1;P1;durP2;ratioP2;P2;SDS_P1;SDS_P2;PMS_P1;PMS_P2;Temp;Humidity;BMP_temperature;BMP_pressure;BME280_temperature;BME280_humidity;BME280_pressure;Samples;Min_cycle;Max_cycle;Signal;HPM_P1;HPM_P2
2022/12/25 00:00:55;;;;;;;12.25;3.60;;;;;;;;;;5075800;28;20043;-82
2022/12/25 00:03:20;;;;;;;12.00;3.47;;;;;;;;;;5075357;28;20055;-81
2022/12/25 00:05:45;;;;;;;12.68;3.20;;;;;;;;;;5077070;28;20025;-82
2022/12/25 00:08:11;;;;;;;12.52;3.95;;;;;;;;;;5077883;28;20021;-81
2022/12/25 00:10:36;;;;;;;9.82;4.40;;;;;;;;;;5059685;28;20079;-83
2022/12/25 00:13:01;;;;;;;13.35;4.32;;;;;;;;;;5077128;28;20385;-82
2022/12/25 00:15:27;;;;;;;17.15;4.50;;;;;;;;;;5076998;28;20025;-82
2022/12/25 00:17:52;;;;;;;11.85;4.10;;;;;;;;;;5076156;28;20082;-82
2022/12/25 00:20:20;;;;;;;9.93;4.18;;;;;;;;;;5058133;28;20032;-84
2022/12/25 00:22:46;;;;;;;14.98;4.15;;;;;;;;;;5076427;28;20032;-81
2022/12/25 00:25:11;;;;;;;11.95;4.13;;;;;;;;;;5058488;28;20504;-82
2022/12/25 00:27:36;;;;;;;12.27;4.00;;;;;;;;;;5058729;28;20389;-83
2022/12/25 00:30:06;;;;;;;17.67;4.13;;;;;;;;;;5079929;28;20073;-83
2022/12/25 00:32:35;;;;;;;13.57;4.50;;;;;;;;;;5080582;28;20100;-83
2022/12/25 00:35:00;;;;;;;12.40;4.13;;;;;;;;;;5080366;28;20017;-83
2022/12/25 00:37:26;;;;;;;13.00;3.47;;;;;;;;;;5080172;28;20020;-83
2022/12/25 00:39:51;;;;;;;10.00;3.95;;;;;;;;;;5080069;28;20359;-82
2022/12/25 00:42:19;;;;;;;15.73;3.85;;;;;;;;;;5080587;28;20449;-83
2022/12/25 00:44:46;;;;;;;15.02;4.07;;;;;;;;;;5080557;28;20338;-82
2022/12/25 00:47:11;;;;;;;9.93;3.53;;;;;;;;;;5061955;28;20031;-81
2022/12/25 00:49:36;;;;;;;9.20;3.22;;;;;;;;;;5080307;28;20485;-84
2022/12/25 00:52:02;;;;;;;10.63;3.65;;;;;;;;;;5080387;28;20016;-83
2022/12/25 00:54:27;;;;;;;10.82;3.58;;;;;;;;;;5061897;28;20117;-82
2022/12/25 00:56:52;;;;;;;6.07;3.28;;;;;;;;;;5080024;28;20027;-83
2022/12/25 00:59:17;;;;;;;6.10;2.90;;;;;;;;;;5079893;28;20429;-83
2022/12/25 01:01:43;;;;;;;12.00;3.38;;;;;;;;;;5080076;28;20031;-83
2022/12/25 01:04:09;;;;;;;16.35;3.67;;;;;;;;;;5079623;28;20033;-83
2022/12/25 01:06:34;;;;;;;7.47;3.00;;;;;;;;;;5061542;28;20074;-83
2022/12/25 01:11:43;;;;;;;10.07;3.28;;;;;;;;;;5079902;28;20082;-83
2022/12/25 01:14:09;;;;;;;8.85;2.80;;;;;;;;;;5079130;28;20032;-83
2022/12/25 01:16:35;;;;;;;12.43;3.28;;;;;;;;;;5079021;28;20051;-82
2022/12/25 01:19:00;;;;;;;9.65;3.03;;;;;;;;;;5079030;28;20029;-81
2022/12/25 01:21:25;;;;;;;7.57;2.75;;;;;;;;;;5079599;28;20076;-82
2022/12/25 01:23:52;;;;;;;6.28;3.17;;;;;;;;;;5078805;28;20021;-82
2022/12/25 01:26:19;;;;;;;9.05;3.17;;;;;;;;;;5078944;28;20028;-83
2022/12/25 01:28:45;;;;;;;9.02;3.42;;;;;;;;;;5060334;28;20021;-83
2022/12/25 01:31:13;;;;;;;7.53;2.72;;;;;;;;;;5078394;28;20058;-82
2022/12/25 01:33:40;;;;;;;8.02;2.85;;;;;;;;;;5078027;28;20107;-82
2022/12/25 01:36:26;;;;;;;12.13;2.72;;;;;;;;;;5078593;28;20078;-82
2022/12/25 01:38:53;;;;;;;9.15;2.47;;;;;;;;;;5059906;28;20438;-81
2022/12/25 01:41:21;;;;;;;10.23;2.80;;;;;;;;;;5060242;28;20085;-82
2022/12/25 01:44:11;;;;;;;6.32;2.67;;;;;;;;;;5077861;28;20024;-82
2022/12/25 01:46:36;;;;;;;11.02;2.72;;;;;;;;;;5078374;28;20016;-81
2022/12/25 01:49:05;;;;;;;6.80;2.85;;;;;;;;;;5078026;28;20524;-82
2022/12/25 01:51:40;;;;;;;10.57;2.70;;;;;;;;;;5078211;28;20016;-81
2022/12/25 01:54:11;;;;;;;4.80;2.15;;;;;;;;;;5077665;28;20029;-81
2022/12/25 01:56:38;;;;;;;7.25;2.42;;;;;;;;;;5060084;28;20489;-81
2022/12/25 01:59:05;;;;;;;10.70;3.10;;;;;;;;;;5060014;28;20031;-83
2022/12/25 02:01:31;;;;;;;6.65;2.90;;;;;;;;;;5077659;28;20031;-82
2022/12/25 02:04:03;;;;;;;9.68;3.05;;;;;;;;;;5059651;28;20123;-82
2022/12/25 02:06:29;;;;;;;6.57;3.00;;;;;;;;;;5077811;28;20028;-83
2022/12/25 02:08:56;;;;;;;9.13;3.30;;;;;;;;;;5060016;28;20120;-83
2022/12/25 02:14:05;;;;;;;10.40;3.08;;;;;;;;;;5077730;28;20081;-82
2022/12/25 02:16:34;;;;;;;4.95;2.78;;;;;;;;;;5078276;28;20382;-83
2022/12/25 02:19:07;;;;;;;7.30;2.90;;;;;;;;;;5077611;28;20028;-83
2022/12/25 02:22:05;;;;;;;5.45;2.78;;;;;;;;;;5078048;28;20028;-82
2022/12/25 02:24:50;;;;;;;5.88;3.00;;;;;;;;;;5018078;28;20079;-81
2022/12/25 02:27:53;;;;;;;7.63;2.90;;;;;;;;;;5077978;28;20028;-82
2022/12/25 02:30:19;;;;;;;7.88;3.05;;;;;;;;;;5077140;28;20036;-82
2022/12/25 02:34:01;;;;;;;11.38;3.20;;;;;;;;;;5058822;28;20389;-83
2022/12/25 02:35:48;;;;;;;8.90;2.83;;;;;;;;;;5076756;28;20028;-82
2022/12/25 02:38:35;;;;;;;7.45;3.03;;;;;;;;;;5058906;28;20402;-83
2022/12/25 02:41:07;;;;;;;6.43;2.90;;;;;;;;;;5058968;28;20486;-82
2022/12/25 03:08:48;;;;;;;5.03;2.50;;;;;;;;;;5075763;28;20039;-81
2022/12/25 03:11:32;;;;;;;10.98;2.95;;;;;;;;;;5074962;28;20020;-82
2022/12/25 03:16:52;;;;;;;9.05;2.80;;;;;;;;;;5074782;28;20252;-82
2022/12/25 03:27:39;;;;;;;7.75;2.78;;;;;;;;;;5074812;28;20074;-82
2022/12/25 03:33:04;;;;;;;8.23;2.35;;;;;;;;;;5074382;28;20028;-83
2022/12/25 03:35:44;;;;;;;10.55;2.78;;;;;;;;;;5056655;28;20474;-83
2022/12/25 04:37:35;;;;;;;6.20;2.85;;;;;;;;;;5077621;28;20091;-81
2022/12/25 04:40:00;;;;;;;9.82;2.63;;;;;;;;;;5059376;28;20040;-82
2022/12/25 04:42:25;;;;;;;6.47;2.50;;;;;;;;;;5076922;28;20031;-81
2022/12/25 04:44:50;;;;;;;4.82;2.45;;;;;;;;;;5077043;28;20032;-82
2022/12/25 04:47:15;;;;;;;6.97;2.58;;;;;;;;;;5076559;28;20024;-82
2022/12/25 04:49:41;;;;;;;9.55;3.08;;;;;;;;;;5076768;28;20031;-81
2022/12/25 04:52:06;;;;;;;9.80;2.95;;;;;;;;;;5077190;28;20020;-82
2022/12/25 04:54:31;;;;;;;9.52;2.30;;;;;;;;;;5076819;28;20028;-82
2022/12/25 04:56:56;;;;;;;8.52;2.85;;;;;;;;;;5076878;28;20055;-83
2022/12/25 04:59:22;;;;;;;8.38;2.50;;;;;;;;;;5077596;28;20029;-81
2022/12/25 05:01:47;;;;;;;3.70;2.33;;;;;;;;;;5077510;28;20028;-83
2022/12/25 05:04:12;;;;;;;8.63;2.55;;;;;;;;;;5076499;28;20036;-83
2022/12/25 05:06:37;;;;;;;13.32;2.83;;;;;;;;;;5059115;28;20031;-81
2022/12/25 05:09:03;;;;;;;6.40;2.65;;;;;;;;;;5058885;28;20527;-81
2022/12/25 05:11:28;;;;;;;6.78;2.25;;;;;;;;;;5076675;28;20020;-82
2022/12/25 05:13:53;;;;;;;6.43;2.42;;;;;;;;;;5076092;28;20066;-81
2022/12/25 05:16:19;;;;;;;15.68;2.40;;;;;;;;;;5076459;28;20138;-82
2022/12/25 05:18:48;;;;;;;4.25;2.20;;;;;;;;;;5058315;28;20134;-82
2022/12/25 05:21:13;;;;;;;5.70;2.58;;;;;;;;;;5058408;28;20048;-82
2022/12/25 05:23:47;;;;;;;4.43;2.22;;;;;;;;;;5058203;28;20028;-81
2022/12/25 05:26:12;;;;;;;9.15;2.70;;;;;;;;;;5076915;28;20052;-81
2022/12/25 05:28:38;;;;;;;5.75;2.70;;;;;;;;;;5058149;28;20039;-81
2022/12/25 05:31:03;;;;;;;6.32;2.47;;;;;;;;;;5076158;28;20039;-82
2022/12/25 05:33:28;;;;;;;9.98;2.53;;;;;;;;;;5058216;28;20028;-81
2022/12/25 05:35:53;;;;;;;7.65;2.40;;;;;;;;;;5058278;28;20070;-81
2022/12/25 05:38:19;;;;;;;6.25;2.70;;;;;;;;;;5076300;28;20047;-82
2022/12/25 05:40:44;;;;;;;5.88;2.67;;;;;;;;;;5076164;28;20024;-82
2022/12/25 05:43:09;;;;;;;10.63;2.90;;;;;;;;;;5058404;28;20039;-81
2022/12/25 05:45:35;;;;;;;6.05;2.30;;;;;;;;;;5058030;28;20025;-82
2022/12/25 05:48:00;;;;;;;7.13;2.90;;;;;;;;;;5076355;28;20070;-82
2022/12/25 05:50:25;;;;;;;7.97;2.53;;;;;;;;;;5079027;28;20029;-82
2022/12/25 05:52:50;;;;;;;9.27;2.95;;;;;;;;;;5079280;28;20016;-83
2022/12/25 05:55:16;;;;;;;7.72;2.80;;;;;;;;;;5078988;28;20489;-82
2022/12/25 05:57:41;;;;;;;6.22;2.75;;;;;;;;;;5078595;28;20122;-83
2022/12/25 06:00:07;;;;;;;5.20;3.08;;;;;;;;;;5060409;28;20043;-83
2022/12/25 06:02:34;;;;;;;7.38;3.00;;;;;;;;;;5078066;28;20055;-83
2022/12/25 06:05:03;;;;;;;5.63;2.88;;;;;;;;;;5060436;28;20016;-83
2022/12/25 06:07:28;;;;;;;6.40;2.63;;;;;;;;;;5077605;28;20048;-82
2022/12/25 06:09:54;;;;;;;12.70;2.85;;;;;;;;;;5060387;28;20028;-83
2022/12/25 06:12:19;;;;;;;7.68;2.45;;;;;;;;;;5059709;28;20021;-82
2022/12/25 06:14:44;;;;;;;7.57;2.55;;;;;;;;;;5077855;28;20020;-82
2022/12/25 06:17:10;;;;;;;7.75;2.83;;;;;;;;;;5077799;28;20025;-83
2022/12/25 06:19:35;;;;;;;4.90;2.58;;;;;;;;;;5078497;28;20035;-84
2022/12/25 06:22:00;;;;;;;6.32;2.85;;;;;;;;;;5060569;28;20078;-82
2022/12/25 06:24:25;;;;;;;10.85;2.85;;;;;;;;;;5060636;28;20016;-82
2022/12/25 06:26:51;;;;;;;6.72;2.55;;;;;;;;;;5077550;28;20418;-82
2022/12/25 06:29:16;;;;;;;5.63;2.35;;;;;;;;;;5077513;28;20439;-83
2022/12/25 06:31:41;;;;;;;5.65;2.70;;;;;;;;;;5077815;28;20104;-85
2022/12/25 06:34:07;;;;;;;5.90;2.67;;;;;;;;;;5060061;28;20020;-84
2022/12/25 06:36:32;;;;;;;9.32;3.13;;;;;;;;;;5060443;28;20397;-83
2022/12/25 06:39:01;;;;;;;6.28;2.83;;;;;;;;;;5078224;28;20046;-82
2022/12/25 06:41:28;;;;;;;8.45;3.28;;;;;;;;;;5077936;28;20039;-83
2022/12/25 06:43:59;;;;;;;7.38;2.90;;;;;;;;;;5060521;28;20027;-82
2022/12/25 06:46:32;;;;;;;7.03;3.08;;;;;;;;;;5060706;28;20020;-82
2022/12/25 06:48:58;;;;;;;6.60;3.13;;;;;;;;;;5061754;28;20046;-82
2022/12/25 06:51:27;;;;;;;6.68;3.03;;;;;;;;;;5079403;28;20045;-83
2022/12/25 06:53:56;;;;;;;9.00;3.35;;;;;;;;;;5078432;28;20051;-83
2022/12/25 06:56:26;;;;;;;7.85;2.72;;;;;;;;;;5079216;28;20054;-82
2022/12/25 06:59:03;;;;;;;6.85;2.80;;;;;;;;;;5079668;28;20074;-83
2022/12/25 07:01:45;;;;;;;11.25;3.35;;;;;;;;;;5079665;28;20029;-82
2022/12/25 07:04:15;;;;;;;11.02;3.45;;;;;;;;;;5078808;28;20063;-83
2022/12/25 07:06:41;;;;;;;6.28;3.22;;;;;;;;;;5078392;28;20079;-82
2022/12/25 07:09:06;;;;;;;7.40;3.35;;;;;;;;;;5079035;28;20032;-83
2022/12/25 07:11:43;;;;;;;11.05;3.25;;;;;;;;;;5060317;28;20024;-83
2022/12/25 07:14:19;;;;;;;7.60;3.13;;;;;;;;;;5078738;28;20032;-83
2022/12/25 07:16:44;;;;;;;7.78;3.20;;;;;;;;;;5078368;28;20111;-82
2022/12/25 07:19:19;;;;;;;7.65;3.67;;;;;;;;;;5060368;28;20040;-83
2022/12/25 07:21:45;;;;;;;9.73;3.60;;;;;;;;;;5077899;28;20031;-82
2022/12/25 07:24:10;;;;;;;7.43;3.40;;;;;;;;;;5078245;28;20021;-83
2022/12/25 07:26:35;;;;;;;10.50;3.88;;;;;;;;;;5077310;28;20396;-83
2022/12/25 07:29:00;;;;;;;10.25;3.45;;;;;;;;;;5075995;28;20073;-83
2022/12/25 07:31:26;;;;;;;9.05;3.42;;;;;;;;;;5075593;28;20032;-82
2022/12/25 07:33:53;;;;;;;9.25;3.28;;;;;;;;;;5076059;28;20457;-82
2022/12/25 07:36:18;;;;;;;7.32;3.42;;;;;;;;;;5058317;28;20060;-82
2022/12/25 07:38:47;;;;;;;8.05;3.33;;;;;;;;;;5078981;28;20036;-83
2022/12/25 07:41:12;;;;;;;10.18;4.03;;;;;;;;;;5079112;28;20120;-84
2022/12/25 07:43:38;;;;;;;10.07;4.20;;;;;;;;;;5082013;28;20052;-81
2022/12/25 07:46:04;;;;;;;9.10;3.88;;;;;;;;;;5062029;28;20028;-81
2022/12/25 07:48:29;;;;;;;9.68;4.05;;;;;;;;;;5061448;28;20024;-82
2022/12/25 07:50:56;;;;;;;8.25;3.83;;;;;;;;;;5082142;28;20032;-82
2022/12/25 07:53:21;;;;;;;10.80;4.75;;;;;;;;;;5081171;28;20024;-82
2022/12/25 07:55:47;;;;;;;8.45;4.30;;;;;;;;;;5081380;28;20539;-82
2022/12/25 07:58:12;;;;;;;7.45;4.30;;;;;;;;;;5081038;28;20095;-82
2022/12/25 08:00:37;;;;;;;10.88;4.32;;;;;;;;;;5080401;28;20052;-83
2022/12/25 08:03:03;;;;;;;8.77;4.50;;;;;;;;;;5079617;28;20029;-81
2022/12/25 08:05:28;;;;;;;7.55;3.88;;;;;;;;;;5061103;28;20055;-82
2022/12/25 08:07:54;;;;;;;11.00;4.55;;;;;;;;;;5079062;28;20055;-82
2022/12/25 08:10:19;;;;;;;10.80;4.50;;;;;;;;;;5079094;28;20029;-82
2022/12/25 08:12:45;;;;;;;8.18;3.92;;;;;;;;;;5060931;28;20078;-82
2022/12/25 08:15:10;;;;;;;10.38;4.32;;;;;;;;;;5060923;28;20090;-82
2022/12/25 08:17:35;;;;;;;7.72;3.60;;;;;;;;;;5078435;28;20535;-82
2022/12/25 08:20:00;;;;;;;11.68;4.47;;;;;;;;;;5078053;28;20111;-81
2022/12/25 08:22:26;;;;;;;14.55;4.72;;;;;;;;;;5078332;28;20028;-82
2022/12/25 08:24:51;;;;;;;12.38;4.35;;;;;;;;;;5078522;28;20485;-82
2022/12/25 08:27:16;;;;;;;9.93;4.72;;;;;;;;;;5077534;28;20485;-82
2022/12/25 08:29:43;;;;;;;10.48;5.10;;;;;;;;;;5059625;28;20477;-82
2022/12/25 08:32:08;;;;;;;9.52;4.75;;;;;;;;;;5059926;28;20039;-83
2022/12/25 08:34:33;;;;;;;15.73;5.50;;;;;;;;;;5077516;28;20486;-84
2022/12/25 08:36:58;;;;;;;11.00;5.13;;;;;;;;;;5059642;28;20492;-83
2022/12/25 08:39:24;;;;;;;14.90;5.28;;;;;;;;;;5077263;28;20028;-83
2022/12/25 08:41:49;;;;;;;12.93;4.75;;;;;;;;;;5077220;28;20020;-82
2022/12/25 08:44:14;;;;;;;8.13;5.05;;;;;;;;;;5077742;28;20028;-83
2022/12/25 08:46:39;;;;;;;11.50;5.28;;;;;;;;;;5078058;28;20032;-83
2022/12/25 08:49:05;;;;;;;9.52;4.88;;;;;;;;;;5059268;28;20020;-84
2022/12/25 08:51:30;;;;;;;14.57;5.82;;;;;;;;;;5077966;28;20032;-82
2022/12/25 08:53:58;;;;;;;9.98;5.20;;;;;;;;;;5060454;28;20436;-82
2022/12/25 08:56:23;;;;;;;12.40;4.85;;;;;;;;;;5078393;28;20036;-82
2022/12/25 08:58:48;;;;;;;13.05;4.97;;;;;;;;;;5078416;28;20050;-82
2022/12/25 09:04:23;;;;;;;9.98;4.72;;;;;;;;;;5324897;22;20143;-83
2022/12/25 09:06:49;;;;;;;10.23;4.85;;;;;;;;;;5077710;28;20063;-83
2022/12/25 09:09:15;;;;;;;10.02;5.13;;;;;;;;;;5076527;28;20035;-83
2022/12/25 09:11:40;;;;;;;9.48;5.05;;;;;;;;;;5058739;28;20024;-83
2022/12/25 09:14:05;;;;;;;10.43;5.05;;;;;;;;;;5076593;28;20051;-83
2022/12/25 09:16:31;;;;;;;11.85;5.75;;;;;;;;;;5077193;28;20039;-82
2022/12/25 09:18:57;;;;;;;13.68;5.57;;;;;;;;;;5059533;28;20033;-82
2022/12/25 09:21:22;;;;;;;15.35;5.72;;;;;;;;;;5059743;28;20028;-82
2022/12/25 09:23:48;;;;;;;13.27;5.95;;;;;;;;;;5078288;28;20025;-82
2022/12/25 09:26:16;;;;;;;10.95;5.45;;;;;;;;;;5077874;28;20024;-81
2022/12/25 09:28:41;;;;;;;14.68;6.22;;;;;;;;;;5060231;28;20017;-82
2022/12/25 09:31:07;;;;;;;15.45;6.70;;;;;;;;;;5078876;28;20094;-82
2022/12/25 09:33:32;;;;;;;10.63;5.35;;;;;;;;;;5078417;28;20417;-82
2022/12/25 09:36:00;;;;;;;13.25;5.32;;;;;;;;;;5078934;28;20024;-83
2022/12/25 09:38:26;;;;;;;9.70;5.10;;;;;;;;;;5077906;28;20036;-82
2022/12/25 09:41:20;;;;;;;11.43;5.13;;;;;;;;;;5078441;28;20124;-81
2022/12/25 09:43:50;;;;;;;9.95;5.53;;;;;;;;;;5078098;28;20024;-81
2022/12/25 09:46:19;;;;;;;10.30;4.40;;;;;;;;;;5060378;28;20043;-82
2022/12/25 09:48:56;;;;;;;10.45;4.38;;;;;;;;;;5077949;28;20491;-82
2022/12/25 09:51:23;;;;;;;9.48;4.00;;;;;;;;;;5078155;28;20070;-82
2022/12/25 09:53:57;;;;;;;10.48;3.88;;;;;;;;;;5077623;28;20080;-82
2022/12/25 09:56:24;;;;;;;9.20;4.28;;;;;;;;;;5077902;28;20020;-82
2022/12/25 09:58:50;;;;;;;12.45;4.20;;;;;;;;;;5078180;28;20047;-81
2022/12/25 10:01:50;;;;;;;11.65;3.97;;;;;;;;;;5076926;28;20025;-82
2022/12/25 10:04:52;;;;;;;8.65;3.60;;;;;;;;;;5078073;28;20039;-82
2022/12/25 10:07:29;;;;;;;8.88;3.58;;;;;;;;;;5061749;28;20101;-82
2022/12/25 10:10:29;;;;;;;8.70;3.42;;;;;;;;;;5078218;28;20056;-81
2022/12/25 10:13:28;;;;;;;6.45;3.75;;;;;;;;;;5078673;28;20020;-82
2022/12/25 10:16:41;;;;;;;6.45;3.33;;;;;;;;;;5078730;28;20016;-83
2022/12/25 10:19:25;;;;;;;8.88;3.53;;;;;;;;;;5078156;28;20485;-82
2022/12/25 10:21:53;;;;;;;10.32;3.90;;;;;;;;;;5078493;28;20032;-82
2022/12/25 10:24:40;;;;;;;9.30;4.25;;;;;;;;;;5078353;28;20020;-82
2022/12/25 10:27:16;;;;;;;7.55;3.65;;;;;;;;;;5078258;28;20039;-82
2022/12/25 10:29:44;;;;;;;9.18;4.78;;;;;;;;;;5078672;28;20024;-81
2022/12/25 10:32:09;;;;;;;9.38;4.03;;;;;;;;;;5077463;28;20020;-82
2022/12/25 10:34:38;;;;;;;8.77;3.88;;;;;;;;;;5081092;28;20043;-84
2022/12/25 10:37:03;;;;;;;10.93;5.28;;;;;;;;;;5077327;28;20032;-82
2022/12/25 10:39:29;;;;;;;10.52;4.93;;;;;;;;;;5077795;28;20382;-82
2022/12/25 10:42:33;;;;;;;11.20;5.10;;;;;;;;;;5077179;28;20457;-82
2022/12/25 10:45:05;;;;;;;8.32;4.10;;;;;;;;;;5077219;28;20359;-81
2022/12/25 10:47:33;;;;;;;9.70;3.70;;;;;;;;;;5077789;28;20029;-82
2022/12/25 10:50:06;;;;;;;8.27;3.78;;;;;;;;;;5077129;28;20367;-82
2022/12/25 10:52:31;;;;;;;9.70;4.07;;;;;;;;;;5076863;28;20017;-84
2022/12/25 10:54:56;;;;;;;8.02;3.58;;;;;;;;;;5076994;28;20029;-83
2022/12/25 10:57:24;;;;;;;9.80;4.13;;;;;;;;;;5077065;28;20492;-83
2022/12/25 10:59:55;;;;;;;8.52;3.55;;;;;;;;;;5077446;28;20052;-81
2022/12/25 11:02:34;;;;;;;12.88;4.00;;;;;;;;;;5076459;28;20082;-82
2022/12/25 11:05:07;;;;;;;8.85;3.78;;;;;;;;;;5076689;28;20056;-83
2022/12/25 11:07:45;;;;;;;6.90;3.92;;;;;;;;;;5077394;28;20021;-82
2022/12/25 11:10:40;;;;;;;10.55;3.78;;;;;;;;;;5059840;28;20440;-82
2022/12/25 11:13:16;;;;;;;9.23;3.65;;;;;;;;;;5057037;28;20052;-83
2022/12/25 11:15:43;;;;;;;9.77;3.35;;;;;;;;;;5076798;28;20032;-81
2022/12/25 11:18:20;;;;;;;12.65;3.67;;;;;;;;;;5076470;28;20028;-82
2022/12/25 11:20:52;;;;;;;8.20;4.40;;;;;;;;;;5076174;28;20064;-83
2022/12/25 11:23:21;;;;;;;11.27;3.97;;;;;;;;;;5076339;28;20048;-83
2022/12/25 11:25:56;;;;;;;10.15;3.53;;;;;;;;;;5075923;28;20029;-82
2022/12/25 11:28:23;;;;;;;11.70;3.83;;;;;;;;;;5076280;28;20031;-82
2022/12/25 11:30:54;;;;;;;8.20;3.20;;;;;;;;;;5058936;28;20029;-83
2022/12/25 11:33:21;;;;;;;6.93;3.50;;;;;;;;;;5077628;28;20051;-83
2022/12/25 11:35:51;;;;;;;9.85;4.00;;;;;;;;;;5058757;28;20021;-83
2022/12/25 11:38:17;;;;;;;6.90;3.22;;;;;;;;;;5058324;28;20385;-83
2022/12/25 11:40:50;;;;;;;7.72;3.53;;;;;;;;;;5058716;28;20158;-81
2022/12/25 11:43:39;;;;;;;7.82;3.17;;;;;;;;;;5058662;28;20408;-81
2022/12/25 11:46:39;;;;;;;6.15;3.03;;;;;;;;;;5058676;28;20029;-82
2022/12/25 11:49:09;;;;;;;8.00;2.90;;;;;;;;;;5076492;28;20389;-83
2022/12/25 11:51:37;;;;;;;11.68;3.58;;;;;;;;;;5077422;28;20024;-83
2022/12/25 11:54:10;;;;;;;7.75;3.92;;;;;;;;;;5058796;28;20137;-84
2022/12/25 11:56:36;;;;;;;9.20;3.22;;;;;;;;;;5059333;28;20017;-82
2022/12/25 11:59:07;;;;;;;7.82;3.15;;;;;;;;;;5058139;28;20031;-83
2022/12/25 12:01:37;;;;;;;7.63;3.08;;;;;;;;;;5077486;28;20024;-83
2022/12/25 12:04:12;;;;;;;8.65;3.33;;;;;;;;;;5076584;28;20025;-82
2022/12/25 12:06:49;;;;;;;8.60;3.38;;;;;;;;;;5076557;28;20029;-83
2022/12/25 12:09:24;;;;;;;8.88;3.38;;;;;;;;;;5076795;28;20032;-83
2022/12/25 12:12:07;;;;;;;6.82;3.20;;;;;;;;;;5076140;28;20021;-84
2022/12/25 12:14:54;;;;;;;11.13;3.53;;;;;;;;;;5057308;28;20097;-82
2022/12/25 12:17:19;;;;;;;13.00;3.30;;;;;;;;;;5057928;28;20481;-82
2022/12/25 12:19:45;;;;;;;7.20;3.30;;;;;;;;;;5057908;28;20032;-82
2022/12/25 12:22:23;;;;;;;11.02;3.60;;;;;;;;;;5075998;28;20025;-83
2022/12/25 12:24:54;;;;;;;6.57;2.97;;;;;;;;;;5076746;28;20108;-81
2022/12/25 12:27:24;;;;;;;9.82;3.30;;;;;;;;;;5079229;28;20024;-83
2022/12/25 12:29:57;;;;;;;13.32;3.65;;;;;;;;;;5079371;28;20016;-82
2022/12/25 12:32:46;;;;;;;8.73;3.55;;;;;;;;;;5061370;28;20021;-81
2022/12/25 12:35:16;;;;;;;6.22;3.50;;;;;;;;;;5062037;28;20028;-82
2022/12/25 12:37:44;;;;;;;11.55;3.70;;;;;;;;;;5079276;28;20021;-83
2022/12/25 12:40:32;;;;;;;8.05;3.53;;;;;;;;;;5078979;28;20043;-84
2022/12/25 12:42:58;;;;;;;8.98;3.80;;;;;;;;;;5079422;28;20402;-81
2022/12/25 12:45:31;;;;;;;8.52;3.22;;;;;;;;;;5080049;28;20040;-82
2022/12/25 12:47:57;;;;;;;5.72;2.97;;;;;;;;;;5061825;28;20417;-82
2022/12/25 12:50:34;;;;;;;6.53;2.95;;;;;;;;;;5061251;28;20038;-83
2022/12/25 12:53:16;;;;;;;6.75;3.42;;;;;;;;;;5079222;28;20470;-82
2022/12/25 12:55:41;;;;;;;6.18;2.97;;;;;;;;;;5079357;28;20460;-82
2022/12/25 12:58:23;;;;;;;7.18;3.83;;;;;;;;;;5079483;28;20056;-84
2022/12/25 13:00:58;;;;;;;8.52;3.05;;;;;;;;;;5079890;28;20388;-82
2022/12/25 13:03:35;;;;;;;10.18;2.95;;;;;;;;;;5078931;28;20115;-84
2022/12/25 13:06:19;;;;;;;10.95;3.33;;;;;;;;;;5079785;28;20028;-83
2022/12/25 13:09:04;;;;;;;8.33;2.70;;;;;;;;;;5061331;28;20028;-83
2022/12/25 13:11:34;;;;;;;16.73;3.42;;;;;;;;;;5079339;28;20138;-84
2022/12/25 13:14:01;;;;;;;6.55;3.22;;;;;;;;;;5061104;28;20108;-82
2022/12/25 13:16:29;;;;;;;7.13;3.58;;;;;;;;;;5061808;28;20050;-82
2022/12/25 13:18:55;;;;;;;7.07;3.58;;;;;;;;;;5079202;28;20024;-82
2022/12/25 13:21:24;;;;;;;9.77;3.90;;;;;;;;;;5079349;28;20055;-82
2022/12/25 13:23:56;;;;;;;8.20;3.83;;;;;;;;;;5078674;28;20024;-83
2022/12/25 13:26:21;;;;;;;8.25;3.13;;;;;;;;;;5060620;28;20515;-83
2022/12/25 13:28:46;;;;;;;7.60;3.50;;;;;;;;;;5078740;28;20028;-84
2022/12/25 13:31:11;;;;;;;10.80;3.72;;;;;;;;;;5078638;28;20296;-84
2022/12/25 13:33:38;;;;;;;7.97;4.30;;;;;;;;;;5078218;28;20028;-82
2022/12/25 13:36:08;;;;;;;10.95;3.67;;;;;;;;;;5060261;28;20067;-81
2022/12/25 13:38:33;;;;;;;10.10;4.15;;;;;;;;;;5078530;28;20439;-82
2022/12/25 13:43:43;;;;;;;12.23;3.63;;;;;;;;;;5078278;28;20074;-83
2022/12/25 13:46:15;;;;;;;9.23;4.32;;;;;;;;;;5060838;28;20035;-84
2022/12/25 13:48:41;;;;;;;8.45;4.07;;;;;;;;;;5078379;28;20036;-83
2022/12/25 13:51:14;;;;;;;7.03;2.75;;;;;;;;;;5078426;28;20038;-82
2022/12/25 13:53:39;;;;;;;8.20;4.03;;;;;;;;;;5061161;28;20385;-84
2022/12/25 13:56:05;;;;;;;8.15;3.63;;;;;;;;;;5078395;28;20032;-82
2022/12/25 13:58:33;;;;;;;10.33;3.97;;;;;;;;;;5078723;28;20434;-84
2022/12/25 14:01:01;;;;;;;9.55;4.75;;;;;;;;;;5078889;28;20257;-83
2022/12/25 14:03:39;;;;;;;7.88;3.88;;;;;;;;;;5060349;28;20107;-82
2022/12/25 14:06:15;;;;;;;11.57;4.70;;;;;;;;;;5061966;28;20028;-83
2022/12/25 14:08:41;;;;;;;11.10;3.40;;;;;;;;;;5060947;28;20029;-85
2022/12/25 14:11:07;;;;;;;9.23;3.47;;;;;;;;;;5060839;28;20038;-82
2022/12/25 14:13:36;;;;;;;7.70;3.42;;;;;;;;;;5078564;28;20052;-83
2022/12/25 14:16:01;;;;;;;7.95;3.67;;;;;;;;;;5078659;28;20028;-82
2022/12/25 14:18:28;;;;;;;9.52;4.00;;;;;;;;;;5078636;28;20073;-83
2022/12/25 14:21:05;;;;;;;6.85;3.67;;;;;;;;;;5060542;28;20036;-83
2022/12/25 14:23:47;;;;;;;10.23;4.00;;;;;;;;;;5078355;28;20482;-83
2022/12/25 14:26:17;;;;;;;6.85;3.33;;;;;;;;;;5061660;28;20055;-84
2022/12/25 14:28:50;;;;;;;7.78;3.30;;;;;;;;;;5060879;28;20043;-84
2022/12/25 14:31:16;;;;;;;6.68;3.53;;;;;;;;;;5079788;28;20032;-84
2022/12/25 14:33:42;;;;;;;7.40;2.85;;;;;;;;;;5078992;28;20039;-84
2022/12/25 14:36:11;;;;;;;10.43;3.85;;;;;;;;;;5060971;28;20029;-82
2022/12/25 14:38:39;;;;;;;7.53;2.92;;;;;;;;;;5080079;28;20032;-83
2022/12/25 14:41:14;;;;;;;9.02;3.20;;;;;;;;;;5078819;28;20066;-83
2022/12/25 14:43:51;;;;;;;8.75;3.25;;;;;;;;;;5079353;28;20557;-83
2022/12/25 14:46:23;;;;;;;4.10;2.70;;;;;;;;;;5061258;28;20028;-82
2022/12/25 14:49:20;;;;;;;8.05;3.42;;;;;;;;;;5078654;28;20516;-82
2022/12/25 14:51:45;;;;;;;7.13;3.58;;;;;;;;;;5052908;28;20033;-83
2022/12/25 14:54:19;;;;;;;8.25;3.28;;;;;;;;;;5060771;28;20032;-83
2022/12/25 14:56:48;;;;;;;7.63;3.42;;;;;;;;;;5078908;28;20035;-82
2022/12/25 14:59:19;;;;;;;10.13;3.40;;;;;;;;;;5079119;28;20024;-82
2022/12/25 15:01:50;;;;;;;5.80;3.30;;;;;;;;;;5060966;28;20083;-82
2022/12/25 15:04:16;;;;;;;5.25;2.75;;;;;;;;;;5060775;28;20038;-83
2022/12/25 15:06:58;;;;;;;6.63;3.20;;;;;;;;;;5060418;28;20027;-84
2022/12/25 15:09:25;;;;;;;8.70;3.40;;;;;;;;;;5078893;28;20024;-83
2022/12/25 15:11:55;;;;;;;9.93;3.70;;;;;;;;;;5061310;28;20032;-84
2022/12/25 15:14:24;;;;;;;7.32;3.22;;;;;;;;;;5059832;28;20077;-83
2022/12/25 15:16:56;;;;;;;10.20;3.60;;;;;;;;;;5060165;28;20029;-82
2022/12/25 15:19:25;;;;;;;7.47;3.67;;;;;;;;;;5082571;28;20033;-82
2022/12/25 15:21:51;;;;;;;7.97;3.53;;;;;;;;;;5090888;28;20017;-83
2022/12/25 15:24:17;;;;;;;6.68;3.78;;;;;;;;;;5091937;28;20088;-83
2022/12/25 15:26:42;;;;;;;6.38;2.80;;;;;;;;;;5086997;28;20021;-82
2022/12/25 15:29:08;;;;;;;6.05;3.17;;;;;;;;;;5077420;28;20417;-83
2022/12/25 15:31:35;;;;;;;6.93;3.72;;;;;;;;;;5078019;28;20024;-83
2022/12/25 15:34:11;;;;;;;12.65;4.40;;;;;;;;;;5076877;28;20039;-82
2022/12/25 15:36:36;;;;;;;11.70;4.28;;;;;;;;;;5077541;28;20029;-82
2022/12/25 15:39:02;;;;;;;7.68;4.07;;;;;;;;;;5078164;28;20028;-82
2022/12/25 15:44:14;;;;;;;13.88;4.07;;;;;;;;;;5078063;28;20031;-83
2022/12/25 15:46:40;;;;;;;12.07;4.15;;;;;;;;;;5077708;28;20056;-83
2022/12/25 15:49:05;;;;;;;15.68;4.75;;;;;;;;;;5077131;28;20032;-83
2022/12/25 15:51:30;;;;;;;9.52;4.90;;;;;;;;;;5078069;28;20016;-83
2022/12/25 15:53:55;;;;;;;9.68;4.40;;;;;;;;;;5077966;28;20071;-83
2022/12/25 15:56:22;;;;;;;12.85;4.60;;;;;;;;;;5078324;28;20108;-83
2022/12/25 15:58:47;;;;;;;10.23;4.47;;;;;;;;;;5079934;28;20028;-84
2022/12/25 16:01:14;;;;;;;10.25;4.57;;;;;;;;;;5082193;28;20030;-83
2022/12/25 16:03:40;;;;;;;12.10;5.35;;;;;;;;;;5063799;28;20031;-85
2022/12/25 16:06:09;;;;;;;10.27;5.15;;;;;;;;;;5082038;28;20024;-81
2022/12/25 16:08:35;;;;;;;11.65;5.53;;;;;;;;;;5063960;28;20016;-81
2022/12/25 16:11:00;;;;;;;8.73;4.57;;;;;;;;;;5081795;28;20162;-84
2022/12/25 16:13:25;;;;;;;10.13;5.20;;;;;;;;;;5081618;28;20033;-82
2022/12/25 16:15:50;;;;;;;11.00;4.90;;;;;;;;;;5081862;28;20272;-82
2022/12/25 16:18:16;;;;;;;9.88;4.78;;;;;;;;;;5063177;28;20265;-84
2022/12/25 16:20:41;;;;;;;10.30;4.40;;;;;;;;;;5063820;28;20074;-84
2022/12/25 16:23:06;;;;;;;10.88;4.70;;;;;;;;;;5080957;28;20282;-82
2022/12/25 16:25:31;;;;;;;12.93;5.20;;;;;;;;;;5062968;28;20038;-81
2022/12/25 16:27:56;;;;;;;13.53;5.43;;;;;;;;;;5081707;28;20340;-84
2022/12/25 16:30:22;;;;;;;10.57;4.87;;;;;;;;;;5081199;28;20285;-82
2022/12/25 16:32:48;;;;;;;11.83;5.07;;;;;;;;;;5081095;28;20253;-83
2022/12/25 16:35:14;;;;;;;12.75;5.38;;;;;;;;;;5080849;28;20261;-83
2022/12/25 16:37:39;;;;;;;9.93;4.10;;;;;;;;;;5080706;28;20375;-83
2022/12/25 16:40:07;;;;;;;10.52;5.03;;;;;;;;;;5081336;28;20146;-83
2022/12/25 16:42:32;;;;;;;13.20;6.53;;;;;;;;;;5062871;28;20047;-83
2022/12/25 16:44:57;;;;;;;13.15;6.28;;;;;;;;;;5063613;28;20025;-83